Apopka, Florida
Current Conditions -  °F | °C
As of 8:53 AM on Sunday 23 Nov 2014 (Local Time) from KORL Reporting Station
Overcast Overcast  
Wind Chill: 23°   Ceiling: 900
Heat Index: 23°   Visibility: 10mi
Dew Point: 22°   Wind: 13mph
Humidity: 93%   Direction: 160°SSE
Pressure: 30.02"   Gusts: NA
Location:  28.67°N, 81.51°W
Report Text: KORL 231353Z 16011KT 10SM OVC009 23/22 A3002 RMK AO2 SLP167 T02330222
Loading
Personal Weather Stations






























Interactive Weather Map New forecast layout! Learn more

10-Day Weather Forecast

Advertisements
Track Severe Weather on mobile